Time;durP1;ratioP1;P1;durP2;ratioP2;P2;SDS_P1;SDS_P2;PMS_P1;PMS_P2;Temp;Humidity;BMP_temperature;BMP_pressure;BME280_temperature;BME280_humidity;BME280_pressure;Samples;Min_cycle;Max_cycle;Signal;HPM_P1;HPM_P2
2022/03/07 00:01:09;;;;;;;6.77;1.73;;;3.50;99.90;;;;;;6206715;23;20174;-76
2022/03/07 00:03:36;;;;;;;4.13;1.73;;;3.50;99.90;;;;;;6205901;23;20181;-75
2022/03/07 00:06:04;;;;;;;5.63;1.50;;;3.40;99.90;;;;;;6205973;23;20194;-76
2022/03/07 00:08:31;;;;;;;10.30;1.67;;;3.40;99.90;;;;;;6205951;23;20829;-75
2022/03/07 00:11:02;;;;;;;3.87;1.50;;;3.40;99.90;;;;;;6205463;23;20170;-78
2022/03/07 00:13:28;;;;;;;7.00;1.80;;;3.40;99.90;;;;;;6205561;23;20257;-76
2022/03/07 00:15:55;;;;;;;6.17;2.77;;;3.30;99.90;;;;;;6206622;23;20170;-80
2022/03/07 00:18:23;;;;;;;3.07;1.10;;;3.30;99.90;;;;;;6205166;23;20178;-77
2022/03/07 00:20:50;;;;;;;5.63;1.60;;;3.20;99.90;;;;;;6206122;23;20159;-79
2022/03/07 00:23:17;;;;;;;6.00;1.27;;;3.10;99.90;;;;;;6206925;23;20181;-79
2022/03/07 00:25:43;;;;;;;7.50;2.03;;;3.10;99.90;;;;;;6206819;23;20201;-78
2022/03/07 00:28:10;;;;;;;3.17;1.47;;;3.00;99.90;;;;;;6207352;23;20259;-80
2022/03/07 00:30:37;;;;;;;3.53;1.37;;;2.90;99.90;;;;;;6205256;23;20205;-78
2022/03/07 00:33:04;;;;;;;4.40;1.90;;;2.90;99.90;;;;;;6205986;23;20177;-79
2022/03/07 00:35:32;;;;;;;2.10;1.23;;;2.80;99.90;;;;;;6206759;23;20170;-77
2022/03/07 00:37:59;;;;;;;5.10;1.33;;;2.70;99.90;;;;;;6205262;23;20181;-76
2022/03/07 00:40:26;;;;;;;3.17;1.23;;;2.60;99.90;;;;;;6207370;23;20178;-78
2022/03/07 00:42:52;;;;;;;1.70;0.90;;;2.50;99.90;;;;;;6207184;23;20178;-77
2022/03/07 00:45:19;;;;;;;3.40;1.33;;;2.50;99.90;;;;;;6205665;23;20197;-79
2022/03/07 00:47:46;;;;;;;3.57;1.80;;;2.40;99.90;;;;;;6205946;23;20182;-75
2022/03/07 00:50:13;;;;;;;6.07;1.60;;;2.30;99.90;;;;;;6206562;23;20610;-75
2022/03/07 00:52:41;;;;;;;3.87;1.63;;;2.30;99.90;;;;;;6205654;23;20170;-80
2022/03/07 00:55:09;;;;;;;2.33;1.10;;;2.20;99.90;;;;;;6207262;23;20181;-76
2022/03/07 00:57:36;;;;;;;4.43;1.33;;;2.10;99.90;;;;;;6206130;23;20186;-78
2022/03/07 01:00:04;;;;;;;4.53;1.60;;;2.10;99.90;;;;;;6205461;23;20174;-77
2022/03/07 01:02:31;;;;;;;2.87;1.67;;;2.00;99.90;;;;;;6205928;23;20185;-80
2022/03/07 01:05:00;;;;;;;3.20;1.23;;;2.00;99.90;;;;;;6205826;23;20170;-78
2022/03/07 01:07:27;;;;;;;3.10;1.50;;;1.90;99.90;;;;;;6204669;23;20181;-76
2022/03/07 01:09:55;;;;;;;3.93;1.57;;;1.80;99.90;;;;;;6206275;23;20185;-77
2022/03/07 01:12:22;;;;;;;4.47;1.37;;;1.80;99.90;;;;;;6205864;23;20435;-79
2022/03/07 01:14:49;;;;;;;2.70;1.40;;;1.70;99.90;;;;;;6204715;23;20185;-80
2022/03/07 01:17:16;;;;;;;2.47;1.30;;;1.70;99.90;;;;;;6206131;23;20174;-79
2022/03/07 01:19:42;;;;;;;4.47;1.43;;;1.60;99.90;;;;;;6205295;23;20274;-79
2022/03/07 01:22:09;;;;;;;3.50;1.50;;;1.60;99.90;;;;;;6205639;23;20174;-77
2022/03/07 01:24:37;;;;;;;4.40;1.60;;;1.50;99.90;;;;;;6206049;23;20486;-75
2022/03/07 01:27:06;;;;;;;1.93;1.57;;;1.40;99.90;;;;;;6205425;23;20792;-75
2022/03/07 01:29:33;;;;;;;2.50;1.70;;;1.30;99.90;;;;;;6207178;23;20229;-76
2022/03/07 01:31:59;;;;;;;6.20;1.90;;;1.30;99.90;;;;;;6208810;23;20173;-76
2022/03/07 01:34:26;;;;;;;3.07;1.30;;;1.30;99.90;;;;;;6205797;23;20178;-76
2022/03/07 01:36:53;;;;;;;1.50;1.33;;;1.20;99.90;;;;;;6205173;23;20186;-75
2022/03/07 01:39:20;;;;;;;4.40;1.63;;;1.20;99.90;;;;;;6206385;23;20175;-75
2022/03/07 01:41:46;;;;;;;3.67;1.93;;;1.10;99.90;;;;;;6204150;23;20582;-77
2022/03/07 01:44:19;;;;;;;4.67;2.20;;;1.10;99.90;;;;;;6205858;23;20200;-76
2022/03/07 01:46:46;;;;;;;5.10;1.67;;;1.10;99.90;;;;;;6204503;23;20921;-79
2022/03/07 01:49:13;;;;;;;4.43;1.70;;;1.10;99.90;;;;;;6205246;23;20181;-75
2022/03/07 01:51:42;;;;;;;4.80;1.80;;;1.10;99.90;;;;;;6206681;23;20181;-79
2022/03/07 01:54:10;;;;;;;4.60;1.63;;;1.10;99.90;;;;;;6206327;23;20181;-81
2022/03/07 01:56:37;;;;;;;4.73;1.53;;;1.20;99.90;;;;;;6204902;23;20178;-80
2022/03/07 01:59:04;;;;;;;3.27;1.80;;;1.20;99.90;;;;;;6205880;23;20170;-77
2022/03/07 02:01:32;;;;;;;4.07;2.20;;;1.30;99.90;;;;;;6205500;23;20186;-79
2022/03/07 02:03:59;;;;;;;6.57;2.30;;;1.30;99.90;;;;;;6205044;23;20212;-79
2022/03/07 02:06:27;;;;;;;8.30;2.43;;;1.30;99.90;;;;;;6205384;23;20198;-78
2022/03/07 02:08:55;;;;;;;3.33;1.73;;;1.40;99.90;;;;;;6205552;23;20817;-75
2022/03/07 02:11:22;;;;;;;5.00;1.80;;;1.40;99.90;;;;;;6205589;23;20739;-76
2022/03/07 02:13:48;;;;;;;5.43;2.60;;;1.40;99.90;;;;;;6204758;23;20555;-76
2022/03/07 02:16:17;;;;;;;4.63;1.87;;;1.40;99.90;;;;;;6204611;23;20607;-76
2022/03/07 02:18:45;;;;;;;6.63;1.80;;;1.40;99.90;;;;;;6205566;23;20472;-79
2022/03/07 02:21:15;;;;;;;4.40;1.53;;;1.50;99.90;;;;;;6206203;23;20177;-79
2022/03/07 02:23:43;;;;;;;4.00;2.00;;;1.50;99.90;;;;;;6205915;23;20228;-79
2022/03/07 02:26:11;;;;;;;3.67;1.77;;;1.50;99.90;;;;;;6206593;23;20201;-79
2022/03/07 02:28:40;;;;;;;4.30;1.57;;;1.60;99.90;;;;;;6205155;23;20194;-74
2022/03/07 02:31:07;;;;;;;4.63;1.80;;;1.60;99.90;;;;;;6204174;23;20734;-76
2022/03/07 02:33:34;;;;;;;4.93;2.10;;;1.70;99.90;;;;;;6205473;23;20436;-75
2022/03/07 02:36:02;;;;;;;5.43;1.83;;;1.70;99.90;;;;;;6205501;23;20170;-78
2022/03/07 02:38:29;;;;;;;6.23;2.20;;;1.70;99.90;;;;;;6203973;23;20175;-75
2022/03/07 02:40:57;;;;;;;6.13;2.40;;;1.70;99.90;;;;;;6206383;23;20185;-78
2022/03/07 02:43:23;;;;;;;3.10;1.90;;;1.70;99.90;;;;;;6206843;23;20174;-77
2022/03/07 02:45:51;;;;;;;6.40;1.90;;;1.70;99.90;;;;;;6204584;23;20178;-76
2022/03/07 02:48:18;;;;;;;8.27;2.27;;;1.70;99.90;;;;;;6206586;23;20184;-76
2022/03/07 02:50:45;;;;;;;5.20;2.63;;;1.70;99.90;;;;;;6207023;23;20567;-77
2022/03/07 02:53:12;;;;;;;6.17;2.20;;;1.70;99.90;;;;;;6206513;23;20201;-77
2022/03/07 02:55:39;;;;;;;6.90;2.90;;;1.70;99.90;;;;;;6207106;23;20178;-76
2022/03/07 02:58:07;;;;;;;5.17;2.77;;;1.80;99.90;;;;;;6206730;23;20185;-76
2022/03/07 03:00:34;;;;;;;5.03;2.23;;;1.80;99.90;;;;;;6207047;23;20181;-76
2022/03/07 03:03:01;;;;;;;6.60;2.40;;;1.70;99.90;;;;;;6207379;23;20185;-76
2022/03/07 03:05:28;;;;;;;6.00;2.50;;;1.70;99.90;;;;;;6207092;23;20179;-79
2022/03/07 03:07:54;;;;;;;5.23;2.30;;;1.70;99.90;;;;;;6208457;23;20204;-78
2022/03/07 03:10:22;;;;;;;4.90;2.30;;;1.70;99.90;;;;;;6206709;23;20181;-78
2022/03/07 03:12:49;;;;;;;4.90;2.80;;;1.80;99.90;;;;;;6206428;23;20630;-80
2022/03/07 03:15:17;;;;;;;4.87;2.30;;;1.70;99.90;;;;;;6207234;23;20173;-77
2022/03/07 03:17:45;;;;;;;7.63;2.70;;;1.80;99.90;;;;;;6206771;23;20174;-80
2022/03/07 03:20:13;;;;;;;5.37;2.83;;;1.80;99.90;;;;;;6206490;23;20210;-80
2022/03/07 03:22:41;;;;;;;5.03;3.10;;;1.70;99.90;;;;;;6207167;23;20965;-77
2022/03/07 03:25:09;;;;;;;6.00;2.90;;;1.70;99.90;;;;;;6207883;23;20547;-79
2022/03/07 03:27:36;;;;;;;10.00;3.30;;;1.80;99.90;;;;;;6205618;23;20665;-77
2022/03/07 03:30:04;;;;;;;5.80;2.37;;;1.80;99.90;;;;;;6207112;23;20193;-80
2022/03/07 03:32:32;;;;;;;9.73;2.60;;;1.80;99.90;;;;;;6206534;23;20231;-79
2022/03/07 03:34:59;;;;;;;10.20;3.00;;;1.90;99.90;;;;;;6206157;23;20869;-78
2022/03/07 03:37:26;;;;;;;5.97;2.47;;;1.90;99.90;;;;;;6207427;23;20174;-79
2022/03/07 03:39:54;;;;;;;3.73;2.07;;;1.90;99.90;;;;;;6207367;23;20171;-80
2022/03/07 03:42:21;;;;;;;5.83;2.07;;;1.90;99.90;;;;;;6206448;23;20489;-78
2022/03/07 03:44:48;;;;;;;6.77;2.20;;;1.90;99.90;;;;;;6206374;23;20233;-80
2022/03/07 03:47:15;;;;;;;3.70;2.50;;;1.90;99.90;;;;;;6206886;23;20200;-79
2022/03/07 03:49:43;;;;;;;7.33;3.40;;;1.90;99.90;;;;;;6207479;23;20174;-79
2022/03/07 03:52:10;;;;;;;3.57;2.30;;;1.90;99.90;;;;;;6207231;23;20178;-78
2022/03/07 03:54:37;;;;;;;4.50;1.97;;;1.80;99.90;;;;;;6206670;23;20179;-78
2022/03/07 03:57:06;;;;;;;5.60;2.30;;;1.80;99.90;;;;;;6207547;23;20174;-79
2022/03/07 03:59:34;;;;;;;7.23;2.13;;;1.80;99.90;;;;;;6206565;23;20454;-78
2022/03/07 04:02:01;;;;;;;2.60;1.93;;;1.70;99.90;;;;;;6205904;23;20683;-77
2022/03/07 04:04:28;;;;;;;3.63;1.80;;;1.70;99.90;;;;;;6207086;23;20182;-77
2022/03/07 04:06:56;;;;;;;2.20;1.50;;;1.60;99.90;;;;;;6207208;23;20621;-80
2022/03/07 04:09:23;;;;;;;2.47;1.50;;;1.60;99.90;;;;;;6205308;23;20178;-77
2022/03/07 04:11:50;;;;;;;3.73;1.70;;;1.60;99.90;;;;;;6206894;23;20181;-78
2022/03/07 04:14:17;;;;;;;2.23;1.70;;;1.50;99.90;;;;;;6207086;23;20170;-76
2022/03/07 04:16:44;;;;;;;5.47;1.77;;;1.50;99.90;;;;;;6206314;23;20170;-77
2022/03/07 04:19:12;;;;;;;4.40;1.73;;;1.40;99.90;;;;;;6207579;23;20208;-78
2022/03/07 04:21:40;;;;;;;4.37;2.30;;;1.40;99.90;;;;;;6206142;23;20169;-79
2022/03/07 04:24:09;;;;;;;4.07;2.23;;;1.30;99.90;;;;;;6206197;23;20856;-78
2022/03/07 04:26:36;;;;;;;4.33;2.17;;;1.20;99.90;;;;;;6205905;23;20198;-78
2022/03/07 04:29:05;;;;;;;3.80;2.17;;;1.20;99.90;;;;;;6205182;23;20193;-77
2022/03/07 04:31:33;;;;;;;4.67;2.40;;;1.10;99.90;;;;;;6204549;23;20177;-75
2022/03/07 04:34:00;;;;;;;4.80;2.57;;;1.00;99.90;;;;;;6206692;23;20197;-73
2022/03/07 04:36:26;;;;;;;5.17;3.17;;;1.00;99.90;;;;;;6205519;23;20184;-76
2022/03/07 04:38:54;;;;;;;6.40;2.60;;;1.00;99.90;;;;;;6206283;23;20171;-75
2022/03/07 04:41:22;;;;;;;4.50;2.97;;;0.90;99.90;;;;;;6205573;23;20181;-79
2022/03/07 04:43:49;;;;;;;3.53;2.20;;;0.90;99.90;;;;;;6205111;23;20885;-76
2022/03/07 04:46:16;;;;;;;6.00;2.77;;;0.90;99.90;;;;;;6205241;23;20182;-75
2022/03/07 04:48:43;;;;;;;4.80;3.03;;;0.80;99.90;;;;;;6206726;23;20173;-77
2022/03/07 04:51:09;;;;;;;3.77;2.43;;;0.80;99.90;;;;;;6206302;23;20178;-79
2022/03/07 04:53:36;;;;;;;5.23;3.20;;;0.80;99.90;;;;;;6206007;23;20170;-79
2022/03/07 04:56:03;;;;;;;6.03;3.00;;;0.70;99.90;;;;;;6206921;23;20217;-78
2022/03/07 04:58:31;;;;;;;6.60;2.83;;;0.70;99.90;;;;;;6206134;23;20169;-80
2022/03/07 05:00:59;;;;;;;4.80;3.03;;;0.70;99.90;;;;;;6206027;23;20177;-77
2022/03/07 05:03:26;;;;;;;5.60;2.87;;;0.70;99.90;;;;;;6205691;23;20232;-76
2022/03/07 05:05:53;;;;;;;7.67;3.00;;;0.70;99.90;;;;;;6205319;23;20353;-79
2022/03/07 05:08:20;;;;;;;4.53;3.23;;;0.60;99.90;;;;;;6206659;23;20205;-79
2022/03/07 05:10:47;;;;;;;3.90;2.50;;;0.70;99.90;;;;;;6206389;23;20232;-80
2022/03/07 05:13:13;;;;;;;4.50;3.07;;;0.70;99.90;;;;;;6205687;23;20178;-79
2022/03/07 05:15:42;;;;;;;5.73;3.40;;;0.70;99.90;;;;;;6207393;23;20185;-77
2022/03/07 05:18:08;;;;;;;5.17;2.67;;;0.70;99.90;;;;;;6206432;23;20174;-78
2022/03/07 05:20:35;;;;;;;3.43;2.30;;;0.70;99.90;;;;;;6204458;23;20177;-79
2022/03/07 05:23:02;;;;;;;6.10;2.50;;;0.70;99.90;;;;;;6206916;23;20178;-78
2022/03/07 05:25:29;;;;;;;6.40;2.80;;;0.70;99.90;;;;;;6206050;23;20579;-77
2022/03/07 05:27:56;;;;;;;5.17;2.80;;;0.70;99.90;;;;;;6205290;23;20205;-79
2022/03/07 05:30:24;;;;;;;5.60;3.00;;;0.70;99.90;;;;;;6205199;23;20208;-79
2022/03/07 05:32:54;;;;;;;5.60;2.80;;;0.80;99.90;;;;;;6206001;23;20178;-79
2022/03/07 05:35:23;;;;;;;4.33;2.80;;;0.80;99.90;;;;;;6205478;23;20170;-77
2022/03/07 05:37:50;;;;;;;4.97;3.07;;;0.80;99.90;;;;;;6205792;23;20249;-76
2022/03/07 05:40:17;;;;;;;5.93;2.83;;;0.80;99.90;;;;;;6205910;23;20177;-76
2022/03/07 05:42:44;;;;;;;4.13;2.57;;;0.90;99.90;;;;;;6206933;23;20170;-77
2022/03/07 05:45:13;;;;;;;3.47;2.63;;;0.90;99.90;;;;;;6205862;23;20559;-79
2022/03/07 05:47:41;;;;;;;5.63;2.80;;;0.90;99.90;;;;;;6205403;23;20216;-79
2022/03/07 05:50:10;;;;;;;6.20;3.37;;;1.00;99.90;;;;;;6206148;23;20610;-77
2022/03/07 05:52:37;;;;;;;4.83;2.47;;;1.00;99.90;;;;;;6206245;23;20496;-77
2022/03/07 05:55:04;;;;;;;4.70;2.90;;;1.00;99.90;;;;;;6204796;23;20180;-79
2022/03/07 05:57:32;;;;;;;5.53;3.03;;;1.10;99.90;;;;;;6205389;23;20174;-77
2022/03/07 05:59:58;;;;;;;6.17;2.90;;;1.10;99.90;;;;;;6205998;23;20239;-77
2022/03/07 06:02:25;;;;;;;5.50;2.90;;;1.10;99.90;;;;;;6203669;23;20201;-77
2022/03/07 06:04:52;;;;;;;7.27;3.37;;;1.20;99.90;;;;;;6205814;23;20530;-78
2022/03/07 06:07:21;;;;;;;5.27;2.47;;;1.20;99.90;;;;;;6205302;23;20198;-80
2022/03/07 06:09:47;;;;;;;3.70;2.50;;;1.20;99.90;;;;;;6204792;23;20231;-80
2022/03/07 06:12:14;;;;;;;5.43;2.83;;;1.20;99.90;;;;;;6205297;23;20174;-79
2022/03/07 06:14:41;;;;;;;5.23;2.80;;;1.20;99.90;;;;;;6205373;23;20177;-79
2022/03/07 06:17:08;;;;;;;4.10;2.67;;;1.30;99.90;;;;;;6206749;23;20181;-79
2022/03/07 06:19:35;;;;;;;8.63;3.83;;;1.30;99.90;;;;;;6207311;23;20205;-77
2022/03/07 06:22:01;;;;;;;5.30;2.70;;;1.30;99.90;;;;;;6206888;23;20166;-79
2022/03/07 06:24:29;;;;;;;13.87;3.40;;;1.40;99.90;;;;;;6207870;23;20185;-80
2022/03/07 06:26:57;;;;;;;4.97;3.57;;;1.40;99.90;;;;;;6207412;23;20166;-79
2022/03/07 06:29:24;;;;;;;3.80;2.87;;;1.40;99.90;;;;;;6206494;23;20226;-76
2022/03/07 06:31:51;;;;;;;5.53;3.27;;;1.40;99.90;;;;;;6207469;23;20178;-77
2022/03/07 06:34:18;;;;;;;5.50;3.00;;;1.40;99.90;;;;;;6206079;23;20173;-79
2022/03/07 06:36:44;;;;;;;6.63;3.20;;;1.50;99.90;;;;;;6206693;23;20170;-78
2022/03/07 06:39:11;;;;;;;5.50;3.17;;;1.50;99.90;;;;;;6207482;23;20176;-76
2022/03/07 06:41:39;;;;;;;7.07;3.43;;;1.50;99.90;;;;;;6207374;23;20174;-76
2022/03/07 06:44:06;;;;;;;8.30;4.13;;;1.60;99.90;;;;;;6206903;23;20183;-79
2022/03/07 06:46:33;;;;;;;7.97;4.43;;;1.60;99.90;;;;;;6207341;23;20178;-77
2022/03/07 06:49:00;;;;;;;11.13;5.20;;;1.60;99.90;;;;;;6208049;23;20198;-79
2022/03/07 06:51:27;;;;;;;11.37;5.33;;;1.70;99.90;;;;;;6206502;23;20174;-77
2022/03/07 06:53:53;;;;;;;9.53;5.40;;;1.70;99.90;;;;;;6208203;23;20177;-79
2022/03/07 06:56:20;;;;;;;7.27;5.97;;;1.70;99.90;;;;;;6207163;23;20175;-78
2022/03/07 06:58:48;;;;;;;8.53;4.50;;;1.80;99.90;;;;;;6207668;23;20174;-79
2022/03/07 07:01:15;;;;;;;7.27;4.73;;;1.80;99.90;;;;;;6206849;23;20173;-77
2022/03/07 07:03:42;;;;;;;9.93;5.00;;;1.80;99.90;;;;;;6208528;23;20174;-79
2022/03/07 07:06:09;;;;;;;11.23;5.90;;;1.80;99.90;;;;;;6206167;23;20185;-79
2022/03/07 07:08:36;;;;;;;8.80;5.93;;;1.80;99.90;;;;;;6207226;23;20225;-79
2022/03/07 07:11:02;;;;;;;10.63;5.33;;;1.90;99.90;;;;;;6207756;23;20425;-77
2022/03/07 07:13:29;;;;;;;9.07;6.60;;;1.90;99.90;;;;;;6205408;23;20185;-77
2022/03/07 07:15:57;;;;;;;7.97;5.33;;;1.90;99.90;;;;;;6206920;23;20177;-78
2022/03/07 07:18:25;;;;;;;10.73;6.57;;;2.00;99.90;;;;;;6206404;23;20175;-78
2022/03/07 07:20:53;;;;;;;8.70;6.40;;;2.00;99.90;;;;;;6207030;23;20177;-77
2022/03/07 07:23:21;;;;;;;10.97;6.50;;;2.00;99.90;;;;;;6205876;23;20178;-76
2022/03/07 07:25:48;;;;;;;7.50;5.80;;;2.10;99.90;;;;;;6206445;23;20182;-77
2022/03/07 07:28:15;;;;;;;9.30;6.30;;;2.10;99.90;;;;;;6205610;23;20662;-76
2022/03/07 07:30:44;;;;;;;9.80;7.90;;;2.20;99.90;;;;;;6206769;23;20185;-77
2022/03/07 07:33:13;;;;;;;12.57;7.53;;;2.20;99.90;;;;;;6206439;23;20174;-78
2022/03/07 07:35:40;;;;;;;12.20;9.07;;;2.20;99.90;;;;;;6205827;23;20181;-79
2022/03/07 07:38:07;;;;;;;10.90;7.40;;;2.20;99.90;;;;;;6205989;23;20170;-75
2022/03/07 07:40:34;;;;;;;14.50;8.50;;;2.20;99.90;;;;;;6167940;23;20289;-75
2022/03/07 07:43:00;;;;;;;9.80;7.93;;;2.30;99.90;;;;;;6205853;23;20174;-75
2022/03/07 07:45:27;;;;;;;12.90;9.00;;;2.30;99.90;;;;;;6206747;23;20193;-76
2022/03/07 07:47:54;;;;;;;13.73;9.53;;;2.30;99.90;;;;;;6206985;23;20200;-78
2022/03/07 07:50:22;;;;;;;17.07;10.20;;;2.30;99.90;;;;;;6206674;23;20578;-78
2022/03/07 07:52:49;;;;;;;14.77;10.20;;;2.40;99.90;;;;;;6207236;23;20178;-79
2022/03/07 07:55:16;;;;;;;13.00;9.93;;;2.40;99.90;;;;;;6205734;23;20177;-76
2022/03/07 07:57:43;;;;;;;14.33;10.50;;;2.50;99.90;;;;;;6206403;23;20173;-80
2022/03/07 08:00:15;;;;;;;13.30;10.00;;;2.50;99.90;;;;;;6207015;23;20178;-81
2022/03/07 08:02:42;;;;;;;11.27;9.13;;;2.60;99.90;;;;;;6204530;23;20174;-80
2022/03/07 08:05:09;;;;;;;11.40;9.40;;;2.60;99.90;;;;;;6204279;23;20185;-78
2022/03/07 08:07:39;;;;;;;12.23;9.50;;;2.70;99.90;;;;;;6204020;23;20476;-78
2022/03/07 08:10:06;;;;;;;14.90;10.00;;;2.70;99.90;;;;;;6203363;23;20189;-78
2022/03/07 08:12:33;;;;;;;15.00;9.70;;;2.70;99.90;;;;;;6203476;23;20182;-79
2022/03/07 08:15:00;;;;;;;13.47;9.97;;;2.70;99.90;;;;;;6203085;23;20190;-78
2022/03/07 08:17:27;;;;;;;13.47;10.00;;;2.80;99.90;;;;;;6203807;23;20185;-78
2022/03/07 08:19:54;;;;;;;15.27;10.23;;;2.80;99.90;;;;;;6203877;23;20209;-78
2022/03/07 08:22:21;;;;;;;15.87;9.90;;;2.90;99.90;;;;;;6203036;23;20189;-80
2022/03/07 08:24:49;;;;;;;12.23;8.87;;;2.90;99.90;;;;;;6203422;23;20182;-77
2022/03/07 08:27:16;;;;;;;13.30;9.97;;;3.00;99.90;;;;;;6203966;23;20192;-79
2022/03/07 08:29:43;;;;;;;12.77;9.93;;;3.00;99.90;;;;;;6203327;23;20376;-75
2022/03/07 08:32:10;;;;;;;12.50;9.90;;;3.10;99.90;;;;;;6204428;23;20182;-80
2022/03/07 08:34:38;;;;;;;15.37;10.50;;;3.10;99.90;;;;;;6204571;23;20193;-77
2022/03/07 08:37:04;;;;;;;16.17;9.77;;;3.20;99.90;;;;;;6202504;23;20232;-76
2022/03/07 08:39:31;;;;;;;12.57;9.77;;;3.20;99.90;;;;;;6203472;23;20579;-77
2022/03/07 08:41:59;;;;;;;11.43;9.23;;;3.20;99.90;;;;;;6203527;23;20174;-77
2022/03/07 08:44:26;;;;;;;9.57;8.53;;;3.30;99.90;;;;;;6203693;23;20181;-77
2022/03/07 08:46:53;;;;;;;11.50;9.87;;;3.30;99.90;;;;;;6202800;23;20193;-79
2022/03/07 08:49:21;;;;;;;11.87;9.23;;;3.40;99.90;;;;;;6201705;23;20206;-78
2022/03/07 08:51:47;;;;;;;11.33;9.17;;;3.40;99.90;;;;;;6203488;23;20186;-79
2022/03/07 08:54:17;;;;;;;10.93;8.77;;;3.50;99.90;;;;;;6202337;23;20188;-79
2022/03/07 08:56:44;;;;;;;10.80;9.17;;;3.60;99.90;;;;;;6203627;23;20189;-77
2022/03/07 08:59:12;;;;;;;11.63;9.23;;;3.60;99.90;;;;;;6203143;23;20193;-77
2022/03/07 09:01:39;;;;;;;10.87;8.53;;;3.70;99.90;;;;;;6203545;23;20190;-78
2022/03/07 09:04:06;;;;;;;11.63;8.77;;;3.80;99.90;;;;;;6202377;23;20212;-76
2022/03/07 09:06:33;;;;;;;10.00;8.27;;;3.90;99.90;;;;;;6203189;23;20638;-77
2022/03/07 09:08:59;;;;;;;9.67;7.80;;;4.00;99.90;;;;;;6201368;23;20611;-76
2022/03/07 09:11:26;;;;;;;7.90;6.97;;;4.10;99.90;;;;;;6202687;23;20198;-76
2022/03/07 09:13:53;;;;;;;13.03;8.00;;;4.20;99.90;;;;;;6203446;23;20802;-75
2022/03/07 09:16:22;;;;;;;9.50;8.13;;;4.20;99.90;;;;;;6202674;23;20185;-76
2022/03/07 09:18:48;;;;;;;9.70;7.53;;;4.30;99.90;;;;;;6202349;23;20205;-75
2022/03/07 09:21:15;;;;;;;12.50;8.30;;;4.40;99.90;;;;;;6202970;23;20670;-75
2022/03/07 09:23:46;;;;;;;10.83;9.00;;;4.50;99.90;;;;;;6203797;23;20194;-75
2022/03/07 09:26:13;;;;;;;9.10;7.80;;;4.50;99.90;;;;;;6202417;23;20187;-75
2022/03/07 09:28:41;;;;;;;11.37;7.90;;;4.60;99.90;;;;;;6203442;23;20202;-78
2022/03/07 09:31:07;;;;;;;9.70;8.13;;;4.70;99.90;;;;;;6203176;23;20186;-76
2022/03/07 09:33:36;;;;;;;10.67;7.63;;;4.80;99.90;;;;;;6203912;23;20173;-76
2022/03/07 09:36:04;;;;;;;8.77;7.87;;;4.90;99.90;;;;;;6204430;23;20598;-76
2022/03/07 09:38:31;;;;;;;10.27;8.17;;;5.00;99.90;;;;;;6204884;23;20256;-75
2022/03/07 09:40:58;;;;;;;8.77;6.73;;;5.10;99.90;;;;;;6204806;23;20172;-78
2022/03/07 09:43:25;;;;;;;11.27;8.03;;;5.10;99.90;;;;;;6204951;23;20173;-76
2022/03/07 09:45:52;;;;;;;10.03;7.97;;;5.20;99.90;;;;;;6204469;23;20185;-76
2022/03/07 09:48:21;;;;;;;9.70;7.67;;;5.30;99.90;;;;;;6203236;23;20204;-77
2022/03/07 09:50:50;;;;;;;8.77;6.80;;;5.40;99.90;;;;;;6204915;23;20179;-79
2022/03/07 09:53:17;;;;;;;13.53;8.20;;;5.60;99.90;;;;;;6204128;23;20598;-76
2022/03/07 09:55:45;;;;;;;11.03;7.43;;;5.70;99.90;;;;;;6205385;23;20178;-76
2022/03/07 09:58:12;;;;;;;10.07;7.13;;;5.80;99.90;;;;;;6205438;23;20171;-76
2022/03/07 10:00:41;;;;;;;7.90;7.10;;;5.90;99.90;;;;;;6204155;23;20178;-77
2022/03/07 10:03:10;;;;;;;10.70;7.03;;;6.00;99.90;;;;;;6205151;23;20618;-77
2022/03/07 10:05:38;;;;;;;9.73;7.33;;;6.00;99.90;;;;;;6204433;23;20570;-77
2022/03/07 10:08:07;;;;;;;9.37;6.60;;;6.20;99.90;;;;;;6204275;23;20177;-74
2022/03/07 10:10:36;;;;;;;10.30;6.97;;;6.30;99.90;;;;;;6205453;23;20184;-78
2022/03/07 10:13:07;;;;;;;8.17;6.87;;;6.40;99.90;;;;;;6205284;23;20184;-76
2022/03/07 10:15:35;;;;;;;12.67;6.87;;;6.50;99.90;;;;;;6205074;23;20178;-76
2022/03/07 10:18:02;;;;;;;8.77;6.60;;;6.70;99.90;;;;;;6205475;23;20184;-78
2022/03/07 10:20:29;;;;;;;8.97;7.50;;;6.90;99.90;;;;;;6204874;23;20209;-78
2022/03/07 10:22:58;;;;;;;7.87;6.10;;;7.00;99.90;;;;;;6204927;23;20181;-75
2022/03/07 10:25:28;;;;;;;8.67;6.50;;;7.10;99.90;;;;;;6205261;23;20170;-75
2022/03/07 10:27:56;;;;;;;7.17;5.57;;;7.30;99.90;;;;;;6205413;23;20174;-78
2022/03/07 10:30:24;;;;;;;6.63;5.73;;;7.40;99.90;;;;;;6204127;23;20209;-80
2022/03/07 10:32:56;;;;;;;6.13;5.53;;;7.50;99.90;;;;;;6205427;23;20261;-78
2022/03/07 10:35:25;;;;;;;7.37;5.73;;;7.60;99.90;;;;;;6204208;23;20548;-77
2022/03/07 10:37:57;;;;;;;7.87;5.67;;;7.70;99.90;;;;;;6205072;23;20178;-79
2022/03/07 10:40:26;;;;;;;8.63;5.90;;;7.70;99.90;;;;;;6204570;23;20213;-76
2022/03/07 10:42:54;;;;;;;8.63;5.27;;;7.80;99.90;;;;;;6204958;23;20433;-76
2022/03/07 10:45:21;;;;;;;6.07;4.90;;;7.90;99.90;;;;;;6204811;23;20178;-78
2022/03/07 10:47:52;;;;;;;7.03;6.33;;;7.90;99.90;;;;;;6205451;23;20182;-75
2022/03/07 10:50:21;;;;;;;6.03;4.70;;;8.20;99.90;;;;;;6204086;23;20194;-77
2022/03/07 10:52:47;;;;;;;6.40;4.70;;;8.30;99.90;;;;;;6205679;23;20989;-76
2022/03/07 10:55:15;;;;;;;8.40;5.67;;;8.30;99.90;;;;;;6204767;23;20174;-76
2022/03/07 10:57:43;;;;;;;6.67;5.80;;;8.30;99.90;;;;;;6204029;23;20178;-76
2022/03/07 11:00:13;;;;;;;6.50;5.13;;;8.40;99.90;;;;;;6205118;23;20178;-75
2022/03/07 11:02:41;;;;;;;5.83;4.80;;;8.60;99.90;;;;;;6206697;23;20177;-76
2022/03/07 11:05:09;;;;;;;6.37;5.70;;;8.70;99.90;;;;;;6205129;23;20177;-75
2022/03/07 11:07:39;;;;;;;6.70;5.23;;;8.90;99.90;;;;;;6207189;23;20465;-76
2022/03/07 11:10:08;;;;;;;23.50;5.73;;;8.80;99.90;;;;;;6206765;23;20285;-77
2022/03/07 11:12:35;;;;;;;5.70;4.87;;;8.80;99.90;;;;;;6204794;23;20217;-78
2022/03/07 11:15:08;;;;;;;7.47;4.97;;;8.80;99.90;;;;;;6206791;23;20174;-77
2022/03/07 11:17:38;;;;;;;6.33;4.53;;;8.80;99.90;;;;;;6205573;23;20177;-75
2022/03/07 11:20:06;;;;;;;8.07;5.17;;;8.90;99.90;;;;;;6207009;23;20313;-77
2022/03/07 11:22:33;;;;;;;6.70;5.43;;;9.00;99.90;;;;;;6206388;23;20170;-76
2022/03/07 11:25:01;;;;;;;6.03;5.27;;;8.90;99.90;;;;;;6205840;23;20193;-78
2022/03/07 11:27:28;;;;;;;6.17;5.33;;;8.90;99.90;;;;;;6206652;23;20189;-78
2022/03/07 11:29:56;;;;;;;5.10;4.60;;;8.90;99.90;;;;;;6206945;23;20198;-79
2022/03/07 11:32:24;;;;;;;4.93;4.43;;;9.10;99.90;;;;;;6206706;23;20595;-77
2022/03/07 11:34:56;;;;;;;5.83;4.60;;;9.10;99.90;;;;;;6207277;23;20178;-79
2022/03/07 11:37:28;;;;;;;29.97;6.17;;;9.10;99.90;;;;;;6208997;23;20174;-80
2022/03/07 11:39:56;;;;;;;5.37;4.73;;;9.20;99.90;;;;;;6211250;23;20170;-78
2022/03/07 11:42:23;;;;;;;6.47;5.10;;;9.20;99.90;;;;;;6206092;23;20185;-79
2022/03/07 11:44:50;;;;;;;5.33;4.47;;;9.30;99.90;;;;;;6206813;23;20182;-76
2022/03/07 11:47:19;;;;;;;5.47;4.07;;;9.40;99.90;;;;;;6203739;23;20174;-76
2022/03/07 11:49:58;;;;;;;5.27;4.57;;;9.60;99.90;;;;;;6206024;23;20202;-77
2022/03/07 11:52:25;;;;;;;6.37;4.27;;;9.70;99.90;;;;;;6205181;23;20190;-77
2022/03/07 11:54:53;;;;;;;4.87;4.37;;;9.70;99.90;;;;;;6204375;23;20186;-76
2022/03/07 11:57:32;;;;;;;6.83;5.27;;;9.80;99.90;;;;;;6205317;23;20174;-77
2022/03/07 12:00:14;;;;;;;6.90;4.73;;;9.70;99.90;;;;;;6203740;23;20198;-79
2022/03/07 12:02:42;;;;;;;6.60;4.70;;;9.90;99.90;;;;;;6206070;23;20193;-78
2022/03/07 12:05:25;;;;;;;6.27;5.20;;;9.90;99.90;;;;;;6204694;23;20178;-78
2022/03/07 12:07:53;;;;;;;5.70;5.10;;;10.10;99.90;;;;;;6205380;23;20166;-79
2022/03/07 12:10:20;;;;;;;6.20;4.90;;;9.90;99.90;;;;;;6204503;23;20198;-78
2022/03/07 12:12:47;;;;;;;5.37;4.60;;;9.90;99.90;;;;;;6204773;23;20177;-78
2022/03/07 12:15:15;;;;;;;6.43;5.13;;;10.00;99.90;;;;;;6204495;23;20181;-78
2022/03/07 12:17:42;;;;;;;6.80;5.07;;;10.20;99.90;;;;;;6205846;23;20675;-78
2022/03/07 12:20:09;;;;;;;6.07;4.90;;;10.20;99.90;;;;;;6205201;23;20198;-78
2022/03/07 12:22:38;;;;;;;6.10;5.50;;;10.20;99.90;;;;;;6204429;23;20174;-78
2022/03/07 12:25:09;;;;;;;6.80;5.83;;;10.10;99.90;;;;;;6205169;23;20229;-79
2022/03/07 12:27:39;;;;;;;7.20;5.93;;;10.10;99.90;;;;;;6205719;23;20174;-78
2022/03/07 12:30:08;;;;;;;6.47;5.50;;;10.10;99.90;;;;;;6206212;23;20202;-77
2022/03/07 12:32:35;;;;;;;9.27;5.10;;;10.20;99.90;;;;;;6205369;23;20174;-78
2022/03/07 12:35:02;;;;;;;5.90;5.30;;;10.20;99.90;;;;;;6204662;23;20177;-78
2022/03/07 12:37:29;;;;;;;5.50;4.90;;;10.10;99.90;;;;;;6205203;23;20178;-79
2022/03/07 12:40:00;;;;;;;5.97;5.37;;;10.20;99.90;;;;;;6205818;23;20167;-78
2022/03/07 12:42:28;;;;;;;7.90;5.40;;;10.20;99.90;;;;;;6204460;23;20205;-78
2022/03/07 12:44:59;;;;;;;6.40;5.27;;;10.20;99.90;;;;;;6205481;23;20170;-79
2022/03/07 12:47:28;;;;;;;5.60;5.10;;;10.20;99.90;;;;;;6205167;23;20174;-78
2022/03/07 12:49:55;;;;;;;5.70;4.90;;;10.10;99.90;;;;;;6205460;23;20198;-78
2022/03/07 12:52:25;;;;;;;8.77;5.47;;;10.00;99.90;;;;;;6205667;23;20189;-77
2022/03/07 12:54:52;;;;;;;7.33;5.63;;;9.90;99.90;;;;;;6206250;23;20181;-77
2022/03/07 12:57:21;;;;;;;6.50;5.60;;;9.60;99.90;;;;;;6205644;23;20425;-78